createdAt,value
2022-12-08T00:01:12.938Z,35.17
2022-12-08T00:03:40.245Z,37.87
2022-12-08T00:06:41.193Z,37.37
2022-12-08T00:09:39.065Z,36.47
2022-12-08T00:12:09.116Z,38.93
2022-12-08T00:14:38.837Z,39.37
2022-12-08T00:17:07.687Z,37.97
2022-12-08T00:19:34.745Z,37.30
2022-12-08T00:22:03.310Z,39.70
2022-12-08T00:24:33.234Z,37.83
2022-12-08T00:27:00.333Z,38.07
2022-12-08T00:29:27.470Z,36.77
2022-12-08T00:31:54.611Z,36.53
2022-12-08T00:34:21.725Z,37.43
2022-12-08T00:36:48.839Z,34.53
2022-12-08T00:39:17.844Z,35.80
2022-12-08T00:42:03.919Z,36.00
2022-12-08T00:44:30.951Z,38.57
2022-12-08T00:46:57.993Z,38.77
2022-12-08T00:49:25.063Z,39.00
2022-12-08T00:51:52.478Z,39.73
2022-12-08T00:54:20.047Z,38.03
2022-12-08T00:56:47.141Z,37.40
2022-12-08T00:59:14.220Z,41.43
2022-12-08T01:01:41.426Z,40.90
2022-12-08T01:04:11.983Z,38.07
2022-12-08T01:06:39.812Z,40.20
2022-12-08T01:09:08.679Z,40.10
2022-12-08T01:11:36.988Z,41.03
2022-12-08T01:14:04.434Z,42.30
2022-12-08T01:16:34.858Z,44.37
2022-12-08T01:19:02.389Z,43.07
2022-12-08T01:21:29.741Z,44.17
2022-12-08T01:23:58.038Z,42.50
2022-12-08T01:26:25.065Z,43.93
2022-12-08T01:28:52.124Z,44.90
2022-12-08T01:31:21.228Z,41.47
2022-12-08T01:33:48.986Z,44.03
2022-12-08T01:36:23.347Z,39.90
2022-12-08T01:38:51.538Z,40.37
2022-12-08T01:41:22.811Z,42.83
2022-12-08T01:44:08.211Z,43.33
2022-12-08T01:46:40.325Z,41.43
2022-12-08T01:49:29.659Z,36.00
2022-12-08T01:52:03.237Z,34.20
2022-12-08T01:54:34.877Z,34.37
2022-12-08T01:57:13.736Z,35.40
2022-12-08T01:59:48.114Z,37.57
2022-12-08T02:02:15.464Z,37.20
2022-12-08T02:04:42.550Z,37.00
2022-12-08T02:07:11.959Z,34.77
2022-12-08T02:09:40.660Z,35.67
2022-12-08T02:12:08.718Z,36.97
2022-12-08T02:14:36.063Z,39.33
2022-12-08T02:17:03.036Z,38.00
2022-12-08T02:20:00.957Z,38.33
2022-12-08T02:22:40.048Z,38.47
2022-12-08T02:25:25.089Z,39.97
2022-12-08T02:28:00.781Z,38.70
2022-12-08T02:30:33.945Z,36.93
2022-12-08T02:33:25.638Z,39.53
2022-12-08T02:36:09.243Z,40.40
2022-12-08T02:39:16.042Z,37.97
2022-12-08T02:41:53.976Z,41.33
2022-12-08T02:44:27.042Z,43.03
2022-12-08T02:47:09.067Z,43.23
2022-12-08T02:49:36.222Z,40.43
2022-12-08T02:52:32.163Z,44.63
2022-12-08T02:55:22.722Z,41.20
2022-12-08T02:58:11.007Z,40.63
2022-12-08T03:01:08.461Z,41.37
2022-12-08T03:04:04.906Z,38.80
2022-12-08T03:07:04.530Z,38.97
2022-12-08T03:09:47.745Z,39.97
2022-12-08T03:12:21.672Z,41.80
2022-12-08T03:14:53.621Z,41.00
2022-12-08T03:17:23.200Z,41.03
2022-12-08T03:19:50.490Z,42.13
2022-12-08T03:22:22.496Z,41.57
2022-12-08T03:24:50.145Z,42.07
2022-12-08T03:27:21.692Z,40.73
2022-12-08T03:29:51.215Z,40.20
2022-12-08T03:32:29.110Z,41.03
2022-12-08T03:34:58.316Z,40.37
2022-12-08T03:37:27.595Z,40.57
2022-12-08T03:39:54.827Z,41.33
2022-12-08T03:42:22.205Z,41.50
2022-12-08T03:44:49.161Z,40.93
2022-12-08T03:47:16.186Z,42.43
2022-12-08T03:49:43.224Z,39.13
2022-12-08T03:52:10.253Z,41.20
2022-12-08T03:54:37.425Z,41.23
2022-12-08T03:57:04.452Z,41.43
2022-12-08T03:59:31.460Z,38.77
2022-12-08T04:01:58.514Z,38.40
2022-12-08T04:04:25.542Z,41.63
2022-12-08T04:06:52.644Z,41.00
2022-12-08T04:09:19.720Z,40.43
2022-12-08T04:11:46.723Z,41.90
2022-12-08T04:14:13.877Z,38.63
2022-12-08T04:16:41.383Z,42.00
2022-12-08T04:19:08.537Z,39.73
2022-12-08T04:21:35.601Z,39.20
2022-12-08T04:24:02.974Z,39.37
2022-12-08T04:26:30.065Z,34.90
2022-12-08T04:28:57.282Z,40.13
2022-12-08T04:31:24.486Z,42.93
2022-12-08T04:33:51.565Z,39.57
2022-12-08T04:36:18.680Z,41.13
2022-12-08T04:38:45.743Z,41.80
2022-12-08T04:41:12.767Z,41.43
2022-12-08T04:43:41.187Z,42.83
2022-12-08T04:46:09.393Z,39.77
2022-12-08T04:48:40.082Z,44.43
2022-12-08T04:51:07.552Z,41.53
2022-12-08T04:53:34.594Z,43.40
2022-12-08T04:56:01.592Z,40.83
2022-12-08T04:58:28.586Z,43.17
2022-12-08T05:00:55.658Z,39.17
2022-12-08T05:03:28.245Z,39.43
2022-12-08T05:05:55.855Z,39.57
2022-12-08T05:08:23.084Z,40.83
2022-12-08T05:10:50.185Z,42.30
2022-12-08T05:13:17.183Z,42.27
2022-12-08T05:15:44.332Z,41.00
2022-12-08T05:18:11.460Z,39.63
2022-12-08T05:20:38.539Z,42.07
2022-12-08T05:23:05.630Z,41.63
2022-12-08T05:25:32.720Z,44.17
2022-12-08T05:28:24.579Z,47.13
2022-12-08T05:30:46.883Z,58.33
2022-12-08T05:33:14.169Z,56.77
2022-12-08T05:35:41.473Z,58.47
2022-12-08T05:38:08.812Z,54.17
2022-12-08T05:40:38.939Z,57.57
2022-12-08T05:43:06.347Z,54.40
2022-12-08T05:45:33.998Z,48.73
2022-12-08T05:48:01.298Z,48.47
2022-12-08T05:50:28.457Z,49.20
2022-12-08T05:52:57.369Z,46.57
2022-12-08T05:55:24.440Z,44.83
2022-12-08T05:57:51.504Z,48.10
2022-12-08T06:00:19.175Z,48.23
2022-12-08T06:02:46.434Z,47.33
2022-12-08T06:05:13.490Z,47.67
2022-12-08T06:07:40.544Z,46.67
2022-12-08T06:10:08.155Z,48.63
2022-12-08T06:12:35.267Z,46.43
2022-12-08T06:15:02.295Z,45.63
2022-12-08T06:17:29.260Z,46.33
2022-12-08T06:19:56.599Z,46.50
2022-12-08T06:22:23.601Z,45.00
2022-12-08T06:24:50.660Z,47.10
2022-12-08T06:27:17.605Z,48.10
2022-12-08T06:29:44.624Z,47.93
2022-12-08T06:32:12.346Z,49.57
2022-12-08T06:34:39.385Z,46.80
2022-12-08T06:37:06.457Z,47.47
2022-12-08T06:39:33.555Z,49.63
2022-12-08T06:42:18.928Z,51.33
2022-12-08T06:44:46.095Z,50.80
2022-12-08T06:47:13.178Z,50.67
2022-12-08T06:49:40.816Z,50.53
2022-12-08T06:52:07.805Z,51.00
2022-12-08T06:54:34.965Z,51.87
2022-12-08T06:57:02.031Z,50.53
2022-12-08T06:59:29.104Z,50.93
2022-12-08T07:01:56.240Z,44.77
2022-12-08T07:04:23.431Z,47.10
2022-12-08T07:06:50.579Z,45.40
2022-12-08T07:09:17.595Z,43.97
2022-12-08T07:11:44.633Z,45.03
2022-12-08T07:14:13.486Z,44.40
2022-12-08T07:16:40.544Z,48.33
2022-12-08T07:19:07.758Z,47.13
2022-12-08T07:21:34.796Z,45.73
2022-12-08T07:24:02.745Z,48.40
2022-12-08T07:26:29.760Z,47.20
2022-12-08T07:28:56.810Z,46.63
2022-12-08T07:31:25.564Z,47.73
2022-12-08T07:33:53.398Z,46.07
2022-12-08T07:36:20.613Z,46.50
2022-12-08T07:38:48.203Z,47.07
2022-12-08T07:41:23.213Z,46.60
2022-12-08T07:43:51.133Z,45.63
2022-12-08T07:46:20.659Z,45.27
2022-12-08T07:48:48.240Z,44.73
2022-12-08T07:51:16.715Z,43.60
2022-12-08T07:53:50.052Z,44.67
2022-12-08T07:56:20.799Z,44.43
2022-12-08T07:58:47.820Z,45.93
2022-12-08T08:01:30.117Z,47.77
2022-12-08T08:04:01.845Z,43.93
2022-12-08T08:06:29.223Z,46.43
2022-12-08T08:08:56.241Z,45.77
2022-12-08T08:11:23.808Z,46.63
2022-12-08T08:13:51.805Z,45.43
2022-12-08T08:16:19.361Z,48.23
2022-12-08T08:18:49.458Z,44.50
2022-12-08T08:24:05.353Z,42.50
2022-12-08T08:26:32.480Z,45.53
2022-12-08T08:28:59.578Z,48.23
2022-12-08T08:31:27.439Z,47.90
2022-12-08T08:33:57.205Z,45.60
2022-12-08T08:36:24.423Z,46.07
2022-12-08T08:38:51.437Z,43.60
2022-12-08T08:41:18.458Z,45.60
2022-12-08T08:43:45.548Z,44.70
2022-12-08T08:46:12.747Z,45.93
2022-12-08T08:48:39.874Z,46.10
2022-12-08T08:51:09.661Z,47.90
2022-12-08T08:53:36.875Z,43.33
2022-12-08T08:56:05.283Z,43.60
2022-12-08T08:58:32.390Z,40.63
2022-12-08T09:00:59.436Z,39.40
2022-12-08T09:03:26.861Z,43.77
2022-12-08T09:05:55.972Z,43.67
2022-12-08T09:08:24.103Z,44.23
2022-12-08T09:10:51.365Z,43.57
2022-12-08T09:13:18.399Z,44.30
2022-12-08T09:15:45.701Z,45.00
2022-12-08T09:18:12.763Z,43.67
2022-12-08T09:20:40.174Z,43.37
2022-12-08T09:23:07.184Z,47.00
2022-12-08T09:25:34.179Z,44.73
2022-12-08T09:28:01.258Z,44.90
2022-12-08T09:30:28.314Z,44.77
2022-12-08T09:32:55.374Z,44.90
2022-12-08T09:35:22.504Z,45.43
2022-12-08T09:37:49.542Z,45.13
2022-12-08T09:40:19.443Z,44.73
2022-12-08T09:43:19.630Z,45.40
2022-12-08T09:45:48.672Z,48.63
2022-12-08T09:48:19.940Z,45.37
2022-12-08T09:50:50.081Z,44.40
2022-12-08T09:53:35.218Z,46.60
2022-12-08T09:56:02.798Z,43.87
2022-12-08T09:58:52.686Z,42.20
2022-12-08T10:01:22.185Z,42.33
2022-12-08T10:03:50.217Z,43.87
2022-12-08T10:06:49.428Z,43.67
2022-12-08T10:09:28.274Z,43.97
2022-12-08T10:12:05.616Z,42.70
2022-12-08T10:14:47.269Z,41.73
2022-12-08T10:17:23.827Z,44.27
2022-12-08T10:19:57.193Z,42.07
2022-12-08T10:22:26.927Z,43.33
2022-12-08T10:25:17.246Z,42.77
2022-12-08T10:27:44.665Z,42.63
2022-12-08T10:30:16.039Z,41.50
2022-12-08T10:32:46.632Z,44.80
2022-12-08T10:35:16.360Z,46.73
2022-12-08T10:37:57.478Z,43.70
2022-12-08T10:40:27.672Z,45.63
2022-12-08T10:42:58.208Z,46.80
2022-12-08T10:45:26.972Z,45.40
2022-12-08T10:48:13.689Z,45.07
2022-12-08T10:50:58.256Z,44.37
2022-12-08T10:53:30.889Z,43.97
2022-12-08T10:56:04.058Z,43.97
2022-12-08T10:58:35.936Z,44.60
2022-12-08T11:01:24.157Z,43.37
2022-12-08T11:04:01.617Z,44.83
2022-12-08T11:06:34.258Z,44.27
2022-12-08T11:09:21.963Z,43.20
2022-12-08T11:11:53.531Z,40.07
2022-12-08T11:14:42.272Z,40.53
2022-12-08T11:17:16.826Z,44.60
2022-12-08T11:20:01.686Z,44.00
2022-12-08T11:22:38.834Z,42.13
2022-12-08T11:25:08.646Z,43.20
2022-12-08T11:27:38.783Z,42.17
2022-12-08T11:30:17.161Z,42.73
2022-12-08T11:32:47.351Z,45.77
2022-12-08T11:35:29.510Z,42.73
2022-12-08T11:38:20.464Z,45.40
2022-12-08T11:40:52.678Z,43.53
2022-12-08T11:43:34.793Z,42.80
2022-12-08T11:46:27.491Z,43.97
2022-12-08T11:49:06.684Z,44.77
2022-12-08T11:51:36.059Z,41.50
2022-12-08T11:54:22.752Z,42.40
2022-12-08T11:57:03.892Z,41.53
2022-12-08T11:59:47.025Z,41.00
2022-12-08T12:02:21.447Z,41.73
2022-12-08T12:04:49.403Z,40.87
2022-12-08T12:07:26.218Z,40.07
2022-12-08T12:10:14.919Z,42.13
2022-12-08T12:12:49.010Z,42.13
2022-12-08T12:15:34.990Z,41.60
2022-12-08T12:18:16.943Z,41.87
2022-12-08T12:21:22.863Z,41.77
2022-12-08T12:23:56.577Z,43.37
2022-12-08T12:26:26.413Z,43.77
2022-12-08T12:29:07.011Z,42.33
2022-12-08T12:31:43.114Z,44.07
2022-12-08T12:34:33.219Z,41.63
2022-12-08T12:37:13.062Z,42.43
2022-12-08T12:40:20.747Z,42.57
2022-12-08T12:42:55.382Z,43.63
2022-12-08T12:45:22.384Z,44.47
2022-12-08T12:47:57.333Z,42.77
2022-12-08T12:50:45.314Z,41.63
2022-12-08T12:53:18.957Z,40.63
2022-12-08T12:55:46.167Z,40.27
2022-12-08T12:58:29.909Z,41.77
2022-12-08T13:01:15.164Z,42.20
2022-12-08T13:03:45.702Z,41.93
2022-12-08T13:06:15.327Z,40.83
2022-12-08T13:08:51.992Z,41.23
2022-12-08T13:11:19.450Z,41.73
2022-12-08T13:14:03.250Z,42.47
2022-12-08T13:16:37.516Z,38.80
2022-12-08T13:19:11.875Z,40.20
2022-12-08T13:21:39.842Z,39.80
2022-12-08T13:24:14.472Z,38.17
2022-12-08T13:27:04.476Z,39.37
2022-12-08T13:29:35.762Z,38.47
2022-12-08T13:32:28.694Z,37.27
2022-12-08T13:35:00.301Z,36.93
2022-12-08T13:37:53.895Z,36.83
2022-12-08T13:40:25.441Z,37.07
2022-12-08T13:43:08.536Z,38.53
2022-12-08T13:46:41.983Z,36.53
2022-12-08T13:49:52.763Z,35.93
2022-12-08T13:53:22.399Z,38.33
2022-12-08T13:57:32.754Z,37.83
2022-12-08T14:00:05.252Z,36.97
2022-12-08T14:02:48.155Z,36.50
2022-12-08T14:05:34.830Z,37.30
2022-12-08T14:08:30.150Z,35.37
2022-12-08T14:11:06.249Z,36.40
2022-12-08T14:13:34.353Z,36.90
2022-12-08T14:16:02.525Z,35.97
2022-12-08T14:18:31.795Z,35.97
2022-12-08T14:21:21.207Z,35.63
2022-12-08T14:23:48.912Z,35.10
2022-12-08T14:26:15.938Z,36.57
2022-12-08T14:28:45.294Z,36.40
2022-12-08T14:31:14.765Z,36.00
2022-12-08T14:33:42.617Z,33.60
2022-12-08T14:36:11.105Z,35.10
2022-12-08T14:38:38.286Z,34.90
2022-12-08T14:41:11.666Z,34.27
2022-12-08T14:43:41.047Z,33.20
2022-12-08T14:46:22.995Z,31.67
2022-12-08T14:48:50.264Z,32.67
2022-12-08T14:51:22.949Z,33.90
2022-12-08T14:54:02.752Z,32.97
2022-12-08T14:56:50.356Z,32.77
2022-12-08T14:59:28.893Z,32.83
2022-12-08T15:02:16.113Z,32.33
2022-12-08T15:04:46.419Z,31.57
2022-12-08T15:07:19.271Z,33.00
2022-12-08T15:10:11.051Z,33.47
2022-12-08T15:12:38.146Z,33.97
2022-12-08T15:15:08.581Z,32.40
2022-12-08T15:17:43.303Z,34.70
2022-12-08T15:20:34.573Z,33.70
2022-12-08T15:23:03.085Z,30.87
2022-12-08T15:25:30.276Z,32.50
2022-12-08T15:27:58.164Z,32.43
2022-12-08T15:30:26.539Z,31.27
2022-12-08T15:32:56.066Z,33.33
2022-12-08T15:35:23.425Z,34.13
2022-12-08T15:37:50.466Z,32.10
2022-12-08T15:40:20.030Z,31.70
2022-12-08T15:42:47.441Z,29.57
2022-12-08T15:45:15.743Z,33.70
2022-12-08T15:47:43.696Z,32.70
2022-12-08T15:50:19.535Z,33.33
2022-12-08T15:52:47.256Z,33.03
2022-12-08T15:55:18.833Z,33.67
2022-12-08T15:58:51.667Z,31.37
2022-12-08T16:00:54.422Z,34.07
2022-12-08T16:09:15.300Z,32.03
2022-12-08T16:12:10.090Z,37.40
2022-12-08T16:17:26.507Z,31.97
2022-12-08T16:19:54.299Z,36.87
2022-12-08T16:25:20.336Z,38.07
2022-12-08T16:30:37.013Z,38.63
2022-12-08T16:33:04.513Z,38.37
2022-12-08T16:35:31.787Z,37.00
2022-12-08T16:37:59.062Z,36.37
2022-12-08T16:40:26.100Z,37.60
2022-12-08T16:42:53.586Z,35.93
2022-12-08T16:45:20.559Z,38.70
2022-12-08T16:47:56.048Z,39.43
2022-12-08T16:50:29.373Z,36.63
2022-12-08T16:53:01.486Z,36.10
2022-12-08T16:55:28.836Z,33.67
2022-12-08T16:57:56.230Z,37.23
2022-12-08T17:00:25.533Z,37.27
2022-12-08T17:02:52.973Z,37.30
2022-12-08T17:05:22.489Z,36.43
2022-12-08T17:07:51.742Z,38.53
2022-12-08T17:10:23.004Z,42.83
2022-12-08T17:12:50.726Z,40.33
2022-12-08T17:15:20.780Z,35.80
2022-12-08T17:17:47.796Z,36.23
2022-12-08T17:20:20.647Z,37.43
2022-12-08T17:22:48.013Z,38.57
2022-12-08T17:25:15.197Z,34.43
2022-12-08T17:27:42.697Z,32.90
2022-12-08T17:30:12.606Z,31.53
2022-12-08T17:32:39.697Z,34.17
2022-12-08T17:35:07.598Z,34.50
2022-12-08T17:37:35.045Z,35.63
2022-12-08T17:40:02.460Z,34.70
2022-12-08T17:42:29.710Z,34.60
2022-12-08T17:44:56.760Z,37.43
2022-12-08T17:47:23.901Z,37.87
2022-12-08T17:49:51.091Z,38.07
2022-12-08T17:52:18.085Z,32.80
2022-12-08T17:54:45.070Z,30.70
2022-12-08T17:57:12.106Z,32.87
2022-12-08T17:59:39.178Z,34.60
2022-12-08T18:02:06.738Z,35.93
2022-12-08T18:04:33.790Z,33.53
2022-12-08T18:07:01.380Z,36.43
2022-12-08T18:09:31.401Z,38.70
2022-12-08T18:11:58.600Z,35.03
2022-12-08T18:14:25.933Z,35.67
2022-12-08T18:16:53.165Z,36.43
2022-12-08T18:19:20.343Z,37.17
2022-12-08T18:21:47.386Z,37.47
2022-12-08T18:24:21.896Z,40.30
2022-12-08T18:26:50.712Z,39.20
2022-12-08T18:29:18.076Z,38.43
2022-12-08T18:31:45.234Z,38.67
2022-12-08T18:34:12.263Z,38.93
2022-12-08T18:36:39.355Z,43.90
2022-12-08T18:39:10.722Z,43.17
2022-12-08T18:41:38.172Z,43.33
2022-12-08T18:44:05.199Z,40.07
2022-12-08T18:46:32.274Z,39.77
2022-12-08T18:48:59.562Z,38.43
2022-12-08T18:51:26.730Z,38.40
2022-12-08T18:53:53.881Z,38.83
2022-12-08T18:56:26.626Z,37.10
2022-12-08T18:59:01.258Z,36.70
2022-12-08T19:01:31.087Z,37.93
2022-12-08T19:04:26.735Z,37.90
2022-12-08T19:06:46.578Z,35.57
2022-12-08T19:09:14.211Z,37.83
2022-12-08T19:11:42.113Z,37.87
2022-12-08T19:14:09.931Z,40.57
2022-12-08T19:16:37.161Z,40.70
2022-12-08T19:19:04.903Z,40.87
2022-12-08T19:21:32.547Z,38.87
2022-12-08T19:24:00.106Z,38.17
2022-12-08T19:26:28.621Z,37.87
2022-12-08T19:28:55.853Z,40.37
2022-12-08T19:31:22.984Z,37.40
2022-12-08T19:33:50.163Z,39.37
2022-12-08T19:36:19.744Z,37.87
2022-12-08T19:39:06.057Z,40.63
2022-12-08T19:41:52.328Z,38.40
2022-12-08T19:44:40.535Z,37.10
2022-12-08T19:47:07.820Z,38.97
2022-12-08T19:49:35.203Z,37.23
2022-12-08T19:52:02.361Z,40.23
2022-12-08T19:54:29.366Z,38.40
2022-12-08T19:56:56.653Z,38.83
2022-12-08T19:59:26.471Z,39.67
2022-12-08T20:01:55.938Z,37.17
2022-12-08T20:04:24.619Z,41.23
2022-12-08T20:06:53.469Z,37.30
2022-12-08T20:09:21.119Z,37.30
2022-12-08T20:11:48.585Z,34.90
2022-12-08T20:14:15.622Z,37.17
2022-12-08T20:16:42.747Z,35.57
2022-12-08T20:19:09.919Z,37.33
2022-12-08T20:21:37.013Z,39.37
2022-12-08T20:24:04.736Z,36.97
2022-12-08T20:26:31.967Z,37.37
2022-12-08T20:28:59.109Z,37.40
2022-12-08T20:31:28.582Z,35.47
2022-12-08T20:33:56.130Z,36.67
2022-12-08T20:36:23.297Z,37.13
2022-12-08T20:38:52.235Z,38.13
2022-12-08T20:41:20.278Z,36.83
2022-12-08T20:43:48.798Z,38.17
2022-12-08T20:46:17.506Z,37.93
2022-12-08T20:48:45.023Z,35.77
2022-12-08T20:51:18.399Z,37.37
2022-12-08T20:53:46.054Z,36.60
2022-12-08T20:56:18.643Z,34.03
2022-12-08T20:58:46.080Z,34.43
2022-12-08T21:01:15.433Z,35.77
2022-12-08T21:03:44.201Z,36.13
2022-12-08T21:06:12.160Z,34.50
2022-12-08T21:08:40.819Z,34.63
2022-12-08T21:11:09.145Z,37.97
2022-12-08T21:13:39.846Z,35.60
2022-12-08T21:16:09.314Z,35.37
2022-12-08T21:18:39.717Z,36.33
2022-12-08T21:21:11.007Z,35.10
2022-12-08T21:23:38.416Z,34.10
2022-12-08T21:26:14.376Z,35.77
2022-12-08T21:28:41.953Z,34.03
2022-12-08T21:31:11.250Z,36.03
2022-12-08T21:33:38.821Z,35.90
2022-12-08T21:36:13.101Z,34.73
2022-12-08T21:38:40.964Z,35.60
2022-12-08T21:41:14.200Z,36.67
2022-12-08T21:43:42.184Z,33.37
2022-12-08T21:46:20.840Z,34.37
2022-12-08T21:48:48.163Z,36.20
2022-12-08T21:51:15.469Z,35.93
2022-12-08T21:53:42.673Z,34.97
2022-12-08T21:56:10.022Z,35.47
2022-12-08T21:58:37.928Z,36.33
2022-12-08T22:01:06.767Z,35.97
2022-12-08T22:03:34.131Z,35.77
2022-12-08T22:06:19.744Z,38.10
2022-12-08T22:08:47.234Z,36.83
2022-12-08T22:11:14.367Z,37.40
2022-12-08T22:13:42.046Z,36.97
2022-12-08T22:16:11.576Z,37.50
2022-12-08T22:18:39.207Z,37.57
2022-12-08T22:21:15.980Z,36.70
2022-12-08T22:23:44.055Z,36.70
2022-12-08T22:26:11.864Z,34.93
2022-12-08T22:28:41.089Z,38.00
2022-12-08T22:31:14.310Z,39.70
2022-12-08T22:33:42.630Z,37.83
2022-12-08T22:36:24.497Z,37.53
2022-12-08T22:38:52.916Z,36.57
2022-12-08T22:41:21.434Z,35.97
2022-12-08T22:43:49.324Z,39.00
2022-12-08T22:46:19.939Z,37.93
2022-12-08T22:48:47.462Z,39.00
2022-12-08T22:51:15.256Z,39.30
2022-12-08T22:53:42.483Z,38.80
2022-12-08T22:56:11.487Z,38.47
2022-12-08T22:58:39.884Z,38.43
2022-12-08T23:01:07.759Z,38.80
2022-12-08T23:03:34.990Z,37.53
2022-12-08T23:06:02.582Z,37.97
2022-12-08T23:08:30.111Z,38.03
2022-12-08T23:10:58.071Z,37.07
2022-12-08T23:13:25.266Z,38.13
2022-12-08T23:15:52.586Z,34.53
2022-12-08T23:18:20.013Z,36.83
2022-12-08T23:20:47.841Z,36.47
2022-12-08T23:23:15.496Z,37.00
2022-12-08T23:25:43.846Z,35.67
2022-12-08T23:28:11.389Z,35.97
2022-12-08T23:30:41.828Z,35.80
2022-12-08T23:33:09.331Z,36.00
2022-12-08T23:35:36.508Z,37.07
2022-12-08T23:38:03.793Z,36.23
2022-12-08T23:40:30.847Z,36.43
2022-12-08T23:42:57.878Z,35.37
2022-12-08T23:45:25.172Z,37.93
2022-12-08T23:47:52.461Z,35.30
2022-12-08T23:50:19.630Z,36.87
2022-12-08T23:52:46.815Z,35.27
2022-12-08T23:55:13.819Z,34.13
2022-12-08T23:57:41.017Z,36.67
